Time;durP1;ratioP1;P1;durP2;ratioP2;P2;SDS_P1;SDS_P2;PMS_P1;PMS_P2;Temp;Humidity;BMP_temperature;BMP_pressure;BME280_temperature;BME280_humidity;BME280_pressure;Samples;Min_cycle;Max_cycle;Signal;HPM_P1;HPM_P2
2023/06/28 00:01:56;;;;;;;5.03;2.20;;;;;;;-145.18;100.00;46679.94;5072248;28;20028;-59
2023/06/28 00:04:22;;;;;;;5.20;2.10;;;;;;;-145.18;100.00;46660.41;5076907;28;20049;-60
2023/06/28 00:06:47;;;;;;;5.30;2.33;;;;;;;-145.18;100.00;46679.94;5082510;28;20033;-60
2023/06/28 00:09:13;;;;;;;8.20;2.50;;;;;;;-145.18;100.00;46640.88;5073519;28;20019;-60
2023/06/28 00:11:38;;;;;;;8.33;3.30;;;;;;;-145.18;100.00;46642.81;5072921;28;20089;-60
2023/06/28 00:14:03;;;;;;;4.73;2.93;;;;;;;-145.18;100.00;46679.94;5074223;28;20503;-60
2023/06/28 00:16:29;;;;;;;5.77;3.13;;;;;;;-145.18;100.00;46679.94;5073024;28;20636;-60
2023/06/28 00:19:00;;;;;;;8.50;2.87;;;;;;;-145.18;100.00;46642.81;5072240;28;20032;-59
2023/06/28 00:21:25;;;;;;;6.43;3.33;;;;;;;-145.18;100.00;46646.72;5087946;28;20082;-60
2023/06/28 00:23:51;;;;;;;5.77;3.00;;;;;;;-145.18;100.00;46642.81;5074208;28;20727;-60
2023/06/28 00:26:16;;;;;;;6.90;3.67;;;;;;;-145.18;100.00;46648.69;5073157;28;20060;-60
2023/06/28 00:28:41;;;;;;;9.03;3.00;;;;;;;-145.18;100.00;46646.72;5057044;28;20090;-60
2023/06/28 00:31:07;;;;;;;8.57;2.83;;;;;;;-145.18;100.00;46644.78;5073311;28;20040;-60
2023/06/28 00:33:33;;;;;;;6.63;3.00;;;;;;;-145.18;100.00;46654.53;5074732;28;20063;-60
2023/06/28 00:35:59;;;;;;;4.27;2.30;;;;;;;-145.18;100.00;46642.81;5073186;28;20051;-60
2023/06/28 00:38:25;;;;;;;5.23;2.60;;;;;;;-145.18;100.00;46644.78;5089515;28;20032;-59
2023/06/28 00:40:50;;;;;;;7.57;2.33;;;;;;;-145.18;100.00;46642.81;5073496;28;20499;-59
2023/06/28 00:43:16;;;;;;;8.07;2.87;;;;;;;-145.18;100.00;46642.81;5074793;28;20065;-60
2023/06/28 00:45:41;;;;;;;7.00;2.77;;;;;;;-145.18;100.00;46660.41;5072808;28;20107;-60
2023/06/28 00:48:07;;;;;;;7.27;3.13;;;;;;;-145.18;100.00;46640.88;5054483;28;20468;-60
2023/06/28 00:50:33;;;;;;;6.80;2.90;;;;;;;-145.18;100.00;46642.81;5074384;28;20020;-60
2023/06/28 00:52:59;;;;;;;6.97;2.67;;;;;;;-145.18;100.00;46679.94;5060739;28;20055;-60
2023/06/28 00:55:24;;;;;;;5.80;2.50;;;;;;;-145.18;100.00;46679.94;5075565;28;20028;-60
2023/06/28 00:57:50;;;;;;;5.60;2.27;;;;;;;-145.18;100.00;46660.41;5075113;28;20055;-60
2023/06/28 01:00:16;;;;;;;6.37;2.70;;;;;;;-145.18;100.00;46679.94;5076023;28;20107;-60
2023/06/28 01:02:41;;;;;;;4.27;2.40;;;;;;;-145.18;100.00;46642.81;5057827;28;20546;-60
2023/06/28 01:05:11;;;;;;;7.27;2.70;;;;;;;-145.18;100.00;46644.78;5085310;28;20043;-60
2023/06/28 01:07:38;;;;;;;6.70;2.53;;;;;;;-145.18;100.00;46644.78;5087964;28;20039;-60
2023/06/28 01:10:04;;;;;;;4.77;2.10;;;;;;;-145.18;100.00;46677.97;5084947;28;20029;-59
2023/06/28 01:12:30;;;;;;;4.93;2.50;;;;;;;-145.18;100.00;46646.72;5107205;28;20023;-60
2023/06/28 01:14:56;;;;;;;5.20;2.20;;;;;;;-145.18;100.00;46650.63;5095100;28;20107;-60
2023/06/28 01:17:21;;;;;;;4.93;1.90;;;;;;;-145.18;100.00;46646.72;5089109;28;20598;-60
2023/06/28 01:19:48;;;;;;;5.00;2.40;;;;;;;-145.18;100.00;46650.63;5076373;28;20028;-60
2023/06/28 01:22:14;;;;;;;7.87;2.60;;;;;;;-145.18;100.00;46646.72;5093014;28;20020;-60
2023/06/28 01:24:40;;;;;;;6.93;2.40;;;;;;;-145.18;100.00;46650.63;5083407;28;20039;-60
2023/06/28 01:27:09;;;;;;;7.13;2.83;;;;;;;-145.18;100.00;46656.50;5088077;28;20028;-60
2023/06/28 01:29:36;;;;;;;7.27;3.17;;;;;;;-145.18;100.00;46648.69;5094604;28;20035;-60
2023/06/28 01:32:04;;;;;;;8.57;3.07;;;;;;;-145.18;100.00;46644.78;5080496;28;20031;-61
2023/06/28 01:34:29;;;;;;;3.57;2.77;;;;;;;-145.18;100.00;46646.72;5074242;28;20512;-61
2023/06/28 01:37:00;;;;;;;6.00;2.20;;;;;;;-145.18;100.00;46646.72;5074556;28;20123;-61
2023/06/28 01:39:26;;;;;;;4.10;2.10;;;;;;;-145.18;100.00;46646.72;5062327;28;20051;-61
2023/06/28 01:41:53;;;;;;;2.17;1.50;;;;;;;-145.18;100.00;46644.78;5061774;28;20028;-60
2023/06/28 01:44:19;;;;;;;8.57;2.00;;;;;;;-145.18;100.00;46646.72;5082884;28;20040;-60
2023/06/28 01:46:45;;;;;;;5.87;2.10;;;;;;;-145.18;100.00;46648.69;5074557;28;20043;-60
2023/06/28 01:49:10;;;;;;;5.63;1.80;;;;;;;-145.18;100.00;46644.78;5078915;28;20485;-60
2023/06/28 01:51:36;;;;;;;4.70;1.93;;;;;;;-145.18;100.00;46679.94;5074705;28;20063;-60
2023/06/28 01:54:03;;;;;;;5.60;1.90;;;;;;;-145.18;100.00;46679.94;5074669;28;20078;-60
2023/06/28 01:56:29;;;;;;;4.87;2.03;;;;;;;-145.18;100.00;46642.81;5056021;28;20443;-60
2023/06/28 01:58:54;;;;;;;3.53;2.10;;;;;;;-145.18;100.00;46644.78;5074432;28;20032;-60
2023/06/28 02:01:20;;;;;;;6.20;2.17;;;;;;;-145.18;100.00;46642.81;5085755;28;20029;-60
2023/06/28 02:03:45;;;;;;;7.50;2.50;;;;;;;-145.18;100.00;46642.81;5093748;28;20403;-60
2023/06/28 02:06:11;;;;;;;6.07;2.43;;;;;;;-145.18;100.00;46642.81;5095199;28;20071;-60
2023/06/28 02:08:36;;;;;;;9.20;2.20;;;;;;;-145.18;100.00;46679.94;5075116;28;20507;-60
2023/06/28 02:11:01;;;;;;;7.80;2.63;;;;;;;-145.18;100.00;46679.94;5087015;28;20039;-60
2023/06/28 02:13:27;;;;;;;3.80;2.27;;;;;;;-145.18;100.00;46644.78;5087122;28;20396;-60
2023/06/28 02:15:52;;;;;;;6.00;2.50;;;;;;;-145.18;100.00;46644.78;5074200;28;20036;-61
2023/06/28 02:18:24;;;;;;;4.37;2.23;;;;;;;-145.18;100.00;46642.81;5087417;28;20059;-60
2023/06/28 02:20:52;;;;;;;4.70;2.40;;;;;;;-145.18;100.00;46681.88;5082340;28;20067;-60
2023/06/28 02:23:21;;;;;;;9.43;2.67;;;;;;;-145.18;100.00;46642.81;5075931;28;20036;-60
2023/06/28 02:25:46;;;;;;;5.77;2.40;;;;;;;-145.18;100.00;46648.69;5093916;28;20464;-60
2023/06/28 02:28:12;;;;;;;6.90;2.73;;;;;;;-145.18;100.00;46679.94;5080734;28;20065;-61
2023/06/28 02:30:37;;;;;;;11.60;2.93;;;;;;;-145.18;100.00;46679.94;5057924;28;20036;-60
2023/06/28 02:33:03;;;;;;;6.20;2.30;;;;;;;-145.18;100.00;46642.81;5086473;28;20056;-60
2023/06/28 02:35:28;;;;;;;8.43;2.80;;;;;;;-145.18;100.00;46660.41;5082653;28;20152;-60
2023/06/28 02:37:54;;;;;;;7.27;2.80;;;;;;;-145.18;100.00;46642.81;5082051;28;20626;-60
2023/06/28 02:40:19;;;;;;;6.07;2.50;;;;;;;-145.18;100.00;46679.94;5086699;28;20035;-60
2023/06/28 02:42:45;;;;;;;7.90;2.70;;;;;;;-145.18;100.00;46677.97;5073805;28;20032;-60
2023/06/28 02:45:10;;;;;;;7.17;3.23;;;;;;;-145.18;100.00;46677.97;5072231;28;20054;-60
2023/06/28 02:47:37;;;;;;;8.73;2.93;;;;;;;-145.18;100.00;46660.41;5089347;28;20491;-60
2023/06/28 02:50:05;;;;;;;8.43;3.27;;;;;;;-145.18;100.00;46676.03;5089116;28;20035;-60
2023/06/28 02:52:34;;;;;;;8.53;3.60;;;;;;;-145.18;100.00;46660.41;5073860;28;20037;-60
2023/06/28 02:54:59;;;;;;;6.20;3.07;;;;;;;-145.18;100.00;46660.41;5073549;28;20044;-61
2023/06/28 02:57:26;;;;;;;8.07;3.30;;;;;;;-145.18;100.00;46660.41;5073003;28;20047;-60
2023/06/28 02:59:51;;;;;;;10.30;3.77;;;;;;;-145.18;100.00;46660.41;5074247;28;20040;-60
2023/06/28 03:02:17;;;;;;;9.57;3.80;;;;;;;-145.18;100.00;46660.41;5074036;28;20032;-60
2023/06/28 03:04:42;;;;;;;14.03;3.77;;;;;;;-145.18;100.00;46660.41;5073527;28;20498;-60
2023/06/28 03:07:15;;;;;;;9.73;4.10;;;;;;;-145.18;100.00;46660.41;5073972;28;20788;-60
2023/06/28 03:09:40;;;;;;;6.90;3.10;;;;;;;-145.18;100.00;46660.41;5072788;28;20443;-60
2023/06/28 03:12:06;;;;;;;7.37;3.67;;;;;;;-145.18;100.00;46660.41;5056335;28;20023;-59
2023/06/28 03:14:32;;;;;;;10.07;4.00;;;;;;;-145.18;100.00;46660.41;5073676;28;20458;-60
2023/06/28 03:16:57;;;;;;;6.70;3.87;;;;;;;-145.18;100.00;46660.41;5074955;28;20028;-60
2023/06/28 03:19:22;;;;;;;10.17;4.03;;;;;;;-145.18;100.00;46660.41;5073189;28;20028;-60
2023/06/28 03:21:48;;;;;;;8.00;3.93;;;;;;;-145.18;100.00;46660.41;5056128;28;20028;-60
2023/06/28 03:24:13;;;;;;;12.00;4.33;;;;;;;-145.18;100.00;46660.41;5073789;28;20044;-60
2023/06/28 03:26:38;;;;;;;7.70;4.20;;;;;;;-145.18;100.00;46660.41;5074402;28;20475;-60
2023/06/28 03:29:04;;;;;;;8.77;4.13;;;;;;;-145.18;100.00;46660.41;5073183;28;20487;-60
2023/06/28 03:31:31;;;;;;;14.77;4.87;;;;;;;-145.18;100.00;46660.41;5071693;28;20046;-60
2023/06/28 03:33:57;;;;;;;10.53;4.20;;;;;;;-145.18;100.00;46660.41;5068050;28;20908;-60
2023/06/28 03:36:24;;;;;;;10.60;4.20;;;;;;;-145.18;100.00;46660.41;5042065;28;20120;-61
2023/06/28 03:38:49;;;;;;;8.67;4.13;;;;;;;-145.18;100.00;46660.41;5075205;28;20032;-61
2023/06/28 03:41:14;;;;;;;11.27;4.37;;;;;;;-145.18;100.00;46660.41;5090085;28;20047;-60
2023/06/28 03:43:40;;;;;;;11.13;5.10;;;;;;;-145.18;100.00;46660.41;5053213;28;20029;-60
2023/06/28 03:46:05;;;;;;;8.10;4.57;;;;;;;-145.18;100.00;46660.41;5071883;28;20068;-60
2023/06/28 03:48:31;;;;;;;8.67;4.57;;;;;;;-145.18;100.00;46660.41;5087273;28;20477;-60
2023/06/28 03:50:57;;;;;;;7.77;4.30;;;;;;;-145.18;100.00;46660.41;5083286;28;20032;-60
2023/06/28 03:53:22;;;;;;;10.67;4.43;;;;;;;-145.18;100.00;46660.41;5073642;28;20400;-60
2023/06/28 03:55:47;;;;;;;11.30;5.03;;;;;;;-145.18;100.00;46660.41;5076163;28;20043;-60
2023/06/28 03:58:13;;;;;;;11.57;4.70;;;;;;;-145.18;100.00;46660.41;5055217;28;20057;-60
2023/06/28 04:00:38;;;;;;;12.20;4.60;;;;;;;-145.18;100.00;46660.41;5074253;28;20468;-60
2023/06/28 04:03:03;;;;;;;10.43;4.87;;;;;;;-145.18;100.00;46660.41;5075830;28;20500;-60
2023/06/28 04:05:29;;;;;;;12.20;5.50;;;;;;;-145.18;100.00;46660.41;5083990;28;20036;-60
2023/06/28 04:07:57;;;;;;;9.43;5.30;;;;;;;-145.18;100.00;46660.41;5095632;28;20411;-60
2023/06/28 04:10:23;;;;;;;5.90;4.57;;;;;;;-145.18;100.00;46660.41;5083722;28;20027;-60
2023/06/28 04:12:48;;;;;;;8.40;5.33;;;;;;;-145.18;100.00;46660.41;5079938;28;20032;-60
2023/06/28 04:15:14;;;;;;;11.70;4.87;;;;;;;-145.18;100.00;46660.41;5096360;28;20107;-60
2023/06/28 04:17:39;;;;;;;10.27;5.83;;;;;;;-145.18;100.00;46660.41;5079634;28;20476;-60
2023/06/28 04:20:06;;;;;;;9.10;5.40;;;;;;;-145.18;100.00;46660.41;5072528;28;20433;-60
2023/06/28 04:22:32;;;;;;;11.37;5.03;;;;;;;-145.18;100.00;46660.41;5080657;28;20024;-60
2023/06/28 04:24:57;;;;;;;12.70;5.37;;;;;;;-145.18;100.00;46660.41;5082525;28;20055;-60
2023/06/28 04:27:23;;;;;;;10.10;4.90;;;;;;;-145.18;100.00;46660.41;5078918;28;20511;-60
2023/06/28 04:29:48;;;;;;;9.97;5.20;;;;;;;-145.18;100.00;46660.41;5077978;28;20036;-60
2023/06/28 04:32:22;;;;;;;8.00;4.87;;;;;;;-145.18;100.00;46660.41;5066694;28;20040;-60
2023/06/28 04:34:49;;;;;;;11.37;5.40;;;;;;;-145.18;100.00;46660.41;5076741;28;20056;-60
2023/06/28 04:37:15;;;;;;;11.67;5.27;;;;;;;-145.18;100.00;46660.41;5086093;28;20043;-64
2023/06/28 04:39:41;;;;;;;12.63;5.23;;;;;;;-145.18;100.00;46660.41;5098480;28;20028;-64
2023/06/28 04:42:06;;;;;;;10.13;5.87;;;;;;;-145.18;100.00;46660.41;5072173;28;20033;-64
2023/06/28 04:44:36;;;;;;;13.20;5.10;;;;;;;-145.18;100.00;46660.41;5071222;28;20496;-64
2023/06/28 04:47:02;;;;;;;9.23;5.37;;;;;;;-145.18;100.00;46660.41;5096960;28;20032;-64
2023/06/28 04:49:27;;;;;;;12.60;6.00;;;;;;;-145.18;100.00;46660.41;5078297;28;20115;-64
2023/06/28 04:51:54;;;;;;;9.47;5.40;;;;;;;-145.18;100.00;46660.41;5091999;28;20483;-64
2023/06/28 04:54:19;;;;;;;13.20;5.53;;;;;;;-145.18;100.00;46660.41;5090842;28;20157;-64
2023/06/28 04:56:45;;;;;;;12.70;5.77;;;;;;;-145.18;100.00;46660.41;5091939;28;20039;-64
2023/06/28 04:59:10;;;;;;;10.60;5.77;;;;;;;-145.18;100.00;46660.41;5073445;28;20067;-64
2023/06/28 05:01:37;;;;;;;12.57;5.77;;;;;;;-145.18;100.00;46660.41;5081516;28;20814;-64
2023/06/28 05:04:03;;;;;;;13.73;6.20;;;;;;;-145.18;100.00;46660.41;5088422;28;20031;-64
2023/06/28 05:06:29;;;;;;;9.60;6.23;;;;;;;-145.18;100.00;46660.41;5080975;28;20029;-64
2023/06/28 05:08:54;;;;;;;12.60;6.27;;;;;;;-145.18;100.00;46660.41;5071338;28;20093;-64
2023/06/28 05:11:20;;;;;;;16.07;7.53;;;;;;;-145.18;100.00;46660.41;5071869;28;20124;-64
2023/06/28 05:13:45;;;;;;;12.10;6.17;;;;;;;-145.18;100.00;46660.41;5070969;28;20028;-64
2023/06/28 05:16:11;;;;;;;12.87;7.10;;;;;;;-145.18;100.00;46660.41;5071563;28;20056;-64
2023/06/28 05:18:36;;;;;;;13.60;6.53;;;;;;;-145.18;100.00;46660.41;5071287;28;20111;-64
2023/06/28 05:21:02;;;;;;;14.17;6.40;;;;;;;-145.18;100.00;46660.41;5081243;28;20039;-64
2023/06/28 05:23:27;;;;;;;10.63;6.37;;;;;;;-145.18;100.00;46660.41;5074904;28;20059;-64
2023/06/28 05:25:52;;;;;;;15.43;6.80;;;;;;;-145.18;100.00;46660.41;5071278;28;20043;-65
2023/06/28 05:28:18;;;;;;;11.10;6.57;;;;;;;-145.18;100.00;46660.41;5071520;28;20059;-64
2023/06/28 05:30:44;;;;;;;10.57;6.37;;;;;;;-145.18;100.00;46660.41;5071181;28;20454;-64
2023/06/28 05:33:10;;;;;;;15.03;6.70;;;;;;;-145.18;100.00;46660.41;5071973;28;20040;-64
2023/06/28 05:35:36;;;;;;;12.23;6.30;;;;;;;-145.18;100.00;46660.41;5071757;28;20063;-64
2023/06/28 05:38:03;;;;;;;9.87;5.83;;;;;;;-145.18;100.00;46635.00;5075195;28;20023;-64
2023/06/28 05:40:30;;;;;;;13.53;6.50;;;;;;;-145.18;100.00;46660.41;5076388;28;20024;-64
2023/06/28 05:42:57;;;;;;;11.27;5.90;;;;;;;-145.18;100.00;46635.00;5090338;28;20677;-64
2023/06/28 05:45:23;;;;;;;15.27;6.00;;;;;;;-145.18;100.00;46660.41;5094832;28;20028;-64
2023/06/28 05:47:50;;;;;;;12.97;6.00;;;;;;;-145.18;100.00;46660.41;5077913;28;20788;-61
2023/06/28 05:50:16;;;;;;;12.30;6.13;;;;;;;-145.18;100.00;46660.41;5084342;28;20038;-60
2023/06/28 05:52:44;;;;;;;16.87;6.37;;;;;;;-145.18;100.00;46660.41;5093756;28;20024;-60
2023/06/28 05:55:10;;;;;;;12.77;5.67;;;;;;;-145.18;100.00;46660.41;5076417;28;20157;-60
2023/06/28 05:57:36;;;;;;;12.07;5.50;;;;;;;-145.18;100.00;46660.41;5094142;28;20110;-60
2023/06/28 06:00:06;;;;;;;13.43;5.40;;;;;;;-145.18;100.00;46660.41;5094784;28;20364;-60
2023/06/28 06:02:32;;;;;;;11.27;5.50;;;;;;;-145.18;100.00;46660.41;5093511;28;20479;-60
2023/06/28 06:04:58;;;;;;;11.83;6.23;;;;;;;-145.18;100.00;46660.41;5083563;28;20162;-60
2023/06/28 06:07:24;;;;;;;12.47;5.90;;;;;;;-145.18;100.00;46660.41;5075222;28;20021;-60
2023/06/28 06:09:49;;;;;;;11.87;5.43;;;;;;;-145.18;100.00;46660.41;5084034;28;20162;-60
2023/06/28 06:12:14;;;;;;;11.70;5.37;;;;;;;-145.18;100.00;46638.91;5100668;28;20032;-60
2023/06/28 06:14:40;;;;;;;13.73;5.93;;;;;;;-145.18;100.00;46660.41;5081982;28;20480;-61
2023/06/28 06:17:05;;;;;;;9.27;4.90;;;;;;;-145.18;100.00;46660.41;5103643;28;20028;-60
2023/06/28 06:19:31;;;;;;;12.50;5.50;;;;;;;-145.18;100.00;46636.94;5091281;28;20028;-60
2023/06/28 06:21:56;;;;;;;8.87;5.33;;;;;;;-145.18;100.00;46660.41;5088437;28;20119;-60
2023/06/28 06:24:21;;;;;;;11.73;5.37;;;;;;;-145.18;100.00;46660.41;5090720;28;20024;-60
2023/06/28 06:26:47;;;;;;;13.10;6.00;;;;;;;-145.18;100.00;46676.03;5054735;28;20412;-60
2023/06/28 06:29:12;;;;;;;9.30;5.53;;;;;;;-145.18;100.00;46660.41;5080253;28;20064;-60
2023/06/28 06:31:37;;;;;;;11.50;5.30;;;;;;;-145.18;100.00;46636.94;5076142;28;20032;-61
2023/06/28 06:34:03;;;;;;;12.50;5.70;;;;;;;-145.18;100.00;46640.88;5079101;28;20079;-60
2023/06/28 06:36:28;;;;;;;10.43;5.87;;;;;;;-145.18;100.00;46642.81;5075643;28;20483;-60
2023/06/28 06:38:56;;;;;;;10.43;5.63;;;;;;;-145.18;100.00;46646.72;5079761;28;20032;-61
2023/06/28 06:41:22;;;;;;;12.73;5.37;;;;;;;-145.18;100.00;46640.88;5081312;28;20035;-60
2023/06/28 06:43:48;;;;;;;15.57;5.57;;;;;;;-145.18;100.00;46642.81;5060983;28;20491;-60
2023/06/28 06:46:13;;;;;;;12.50;4.80;;;;;;;-145.18;100.00;46644.78;5073603;28;20047;-60
2023/06/28 06:48:38;;;;;;;13.77;5.40;;;;;;;-145.18;100.00;46642.81;5056744;28;20139;-60
2023/06/28 06:51:05;;;;;;;15.17;5.27;;;;;;;-145.18;100.00;46644.78;5073294;28;20033;-61
2023/06/28 06:53:31;;;;;;;9.57;5.30;;;;;;;-145.18;100.00;46648.69;5092299;28;20107;-61
2023/06/28 06:55:56;;;;;;;9.13;5.20;;;;;;;-145.18;100.00;46646.72;5076425;28;20104;-60
2023/06/28 06:58:23;;;;;;;8.83;4.60;;;;;;;-145.18;100.00;46644.78;5075468;28;20063;-60
2023/06/28 07:00:48;;;;;;;10.30;4.63;;;;;;;-145.18;100.00;46646.72;5057809;28;20035;-60
2023/06/28 07:03:14;;;;;;;9.13;4.67;;;;;;;-145.18;100.00;46648.69;5055674;28;20032;-61
2023/06/28 07:05:39;;;;;;;10.60;4.60;;;;;;;-145.18;100.00;46648.69;5088471;28;20024;-60
2023/06/28 07:08:05;;;;;;;12.70;5.20;;;;;;;-145.18;100.00;46650.63;5074617;28;20067;-61
2023/06/28 07:10:30;;;;;;;9.50;4.80;;;;;;;-145.18;100.00;46646.72;5073533;28;20087;-60
2023/06/28 07:12:56;;;;;;;9.40;4.57;;;;;;;-145.18;100.00;46650.63;5056976;28;20032;-60
2023/06/28 07:15:22;;;;;;;10.97;4.67;;;;;;;-145.18;100.00;46652.59;5074727;28;20055;-60
2023/06/28 07:17:47;;;;;;;12.93;5.53;;;;;;;-145.18;100.00;46654.53;5072662;28;20111;-60
2023/06/28 07:20:12;;;;;;;8.63;5.00;;;;;;;-145.18;100.00;46652.59;5057781;28;20063;-60
2023/06/28 07:22:38;;;;;;;10.90;4.77;;;;;;;-145.18;100.00;46646.72;5084392;28;20593;-60
2023/06/28 07:25:04;;;;;;;11.87;4.40;;;;;;;-145.18;100.00;46650.63;5072480;28;20024;-60
2023/06/28 07:27:30;;;;;;;10.53;4.70;;;;;;;-145.18;100.00;46654.53;5072589;28;20543;-60
2023/06/28 07:29:56;;;;;;;11.90;4.83;;;;;;;-145.18;100.00;46650.63;5059087;28;20115;-60
2023/06/28 07:32:21;;;;;;;7.80;4.93;;;;;;;-145.18;100.00;46656.50;5072245;28;20029;-61
2023/06/28 07:34:47;;;;;;;8.33;4.47;;;;;;;-145.18;100.00;46660.41;5071783;28;20059;-60
2023/06/28 07:37:12;;;;;;;12.47;4.73;;;;;;;-145.18;100.00;46652.59;5079283;28;20411;-61
2023/06/28 07:39:38;;;;;;;10.10;5.33;;;;;;;-145.18;100.00;46658.44;5078151;28;20052;-61
2023/06/28 07:42:03;;;;;;;16.60;4.70;;;;;;;-145.18;100.00;46658.44;5081589;28;20083;-61
2023/06/28 07:44:29;;;;;;;10.83;4.87;;;;;;;-145.18;100.00;46652.59;5056377;28;20036;-61
2023/06/28 07:46:54;;;;;;;11.77;5.50;;;;;;;-145.18;100.00;46660.41;5072392;28;20033;-61
2023/06/28 07:49:19;;;;;;;11.60;4.43;;;;;;;-145.18;100.00;46658.44;5038780;28;20082;-61
2023/06/28 07:51:45;;;;;;;8.93;4.77;;;;;;;-145.18;100.00;46656.50;5071981;28;20047;-61
2023/06/28 07:54:10;;;;;;;9.93;5.13;;;;;;;-145.18;100.00;46660.41;5073814;28;20432;-61
2023/06/28 07:56:36;;;;;;;10.43;5.00;;;;;;;-145.18;100.00;46656.50;5055813;28;20028;-61
2023/06/28 07:59:03;;;;;;;10.70;5.17;;;;;;;-145.18;100.00;46662.34;5050188;28;20036;-61
2023/06/28 08:01:28;;;;;;;12.20;5.10;;;;;;;-145.18;100.00;46658.44;5056253;28;20028;-61
2023/06/28 08:03:53;;;;;;;13.60;5.13;;;;;;;-145.18;100.00;46660.41;5075169;28;20395;-61
2023/06/28 08:06:19;;;;;;;12.23;5.70;;;;;;;-145.18;100.00;46660.41;5071716;28;20463;-60
2023/06/28 08:08:46;;;;;;;12.80;5.10;;;;;;;-145.18;100.00;46658.44;5056894;28;20049;-61
2023/06/28 08:11:12;;;;;;;10.90;5.33;;;;;;;-145.18;100.00;46660.41;5072338;28;20035;-61
2023/06/28 08:13:37;;;;;;;11.40;5.23;;;;;;;-145.18;100.00;46658.44;5071712;28;20032;-61
2023/06/28 08:16:03;;;;;;;13.37;5.37;;;;;;;-145.18;100.00;46664.31;5072112;28;20485;-61
2023/06/28 08:18:28;;;;;;;10.03;4.73;;;;;;;-145.18;100.00;46654.53;5072155;28;20028;-61
2023/06/28 08:20:54;;;;;;;10.77;4.73;;;;;;;-145.18;100.00;46654.53;5072724;28;20036;-61
2023/06/28 08:23:20;;;;;;;11.60;5.20;;;;;;;-145.18;100.00;46662.34;5074662;28;20039;-61
2023/06/28 08:25:45;;;;;;;10.93;4.60;;;;;;;-145.18;100.00;46664.31;5071804;28;20123;-61
2023/06/28 08:28:11;;;;;;;13.53;5.43;;;;;;;-145.18;100.00;46666.25;5074243;28;20124;-61
2023/06/28 08:30:36;;;;;;;13.23;4.93;;;;;;;-145.18;100.00;46668.22;5056415;28;20102;-61
2023/06/28 08:33:02;;;;;;;10.33;4.57;;;;;;;-145.18;100.00;46664.31;5072249;28;20103;-61
2023/06/28 08:35:27;;;;;;;13.30;5.17;;;;;;;-145.18;100.00;46672.13;5072464;28;20027;-61
2023/06/28 08:37:53;;;;;;;9.63;4.93;;;;;;;-145.18;100.00;46672.13;5071719;28;20458;-62
2023/06/28 08:40:18;;;;;;;12.17;5.07;;;;;;;-145.18;100.00;46668.22;5056738;28;20028;-61
2023/06/28 08:42:45;;;;;;;12.57;5.47;;;;;;;-145.18;100.00;46668.22;5078442;28;20112;-61
2023/06/28 08:45:12;;;;;;;12.27;5.60;;;;;;;-145.18;100.00;46670.16;5072174;28;20028;-61
2023/06/28 08:47:39;;;;;;;11.90;5.17;;;;;;;-145.18;100.00;46668.22;5078966;28;20111;-61
2023/06/28 08:50:06;;;;;;;11.07;5.67;;;;;;;-145.18;100.00;46662.34;5073860;28;20036;-61
2023/06/28 08:52:33;;;;;;;14.63;5.23;;;;;;;-145.18;100.00;46668.22;5078678;28;20024;-61
2023/06/28 08:54:58;;;;;;;14.27;5.17;;;;;;;-145.18;100.00;46650.63;5081482;28;20033;-61
2023/06/28 08:57:24;;;;;;;10.87;5.40;;;;;;;-145.18;100.00;46650.63;5073864;28;20085;-61
2023/06/28 08:59:51;;;;;;;12.57;5.43;;;;;;;-145.18;100.00;46652.59;5078023;28;20036;-61
2023/06/28 09:02:18;;;;;;;17.80;6.17;;;;;;;-145.18;100.00;46640.88;5074787;28;20032;-61
2023/06/28 09:04:44;;;;;;;13.43;6.20;;;;;;;-145.18;100.00;46623.28;5072083;28;20040;-61
2023/06/28 09:07:13;;;;;;;17.77;6.97;;;;;;;-145.18;100.00;46572.50;5072782;28;20031;-61
2023/06/28 09:09:42;;;;;;;16.40;5.93;;;;;;;-145.18;100.00;46547.09;5071239;28;20036;-61
2023/06/28 09:12:09;;;;;;;15.47;7.20;;;;;;;-145.18;100.00;46545.16;5073563;28;20032;-62
2023/06/28 09:14:34;;;;;;;12.93;7.07;;;;;;;-145.18;100.00;46535.38;5075822;28;20040;-61
2023/06/28 09:16:59;;;;;;;16.43;6.80;;;;;;;-145.18;100.00;46537.34;5074921;28;20027;-61
2023/06/28 09:19:25;;;;;;;16.00;7.50;;;;;;;-145.18;100.00;46545.16;5075094;28;20041;-61
2023/06/28 09:21:50;;;;;;;17.23;7.10;;;;;;;-145.18;100.00;46537.34;5059070;28;20055;-62
2023/06/28 09:24:16;;;;;;;11.57;6.47;;;;;;;-145.18;100.00;46535.38;5079832;28;20387;-62
2023/06/28 09:26:43;;;;;;;13.03;6.73;;;;;;;-145.18;100.00;46531.47;5079717;28;20029;-62
2023/06/28 09:29:10;;;;;;;14.20;7.23;;;;;;;-145.18;100.00;46537.34;5075085;28;20035;-61
2023/06/28 09:31:44;;;;;;;14.57;6.40;;;;;;;-145.18;100.00;46539.28;5075243;28;20033;-61
2023/06/28 09:34:10;;;;;;;11.63;6.60;;;;;;;-145.18;100.00;46533.44;5092615;28;20056;-61
2023/06/28 09:36:38;;;;;;;17.30;7.00;;;;;;;-145.18;100.00;46531.47;5076594;28;20157;-62
2023/06/28 09:39:05;;;;;;;11.90;6.77;;;;;;;-145.18;100.00;46531.47;5077030;28;20033;-61
2023/06/28 09:41:41;;;;;;;17.00;7.73;;;;;;;-145.18;100.00;46535.38;5075556;28;20032;-62
2023/06/28 09:44:10;;;;;;;14.77;6.60;;;;;;;-145.18;100.00;46535.38;5084326;28;20031;-61
2023/06/28 09:46:42;;;;;;;14.33;7.83;;;;;;;-145.18;100.00;46543.19;5087455;28;20500;-61
2023/06/28 09:49:21;;;;;;;16.37;6.83;;;;;;;-145.18;100.00;46545.16;5085728;28;20052;-62
2023/06/28 09:52:06;;;;;;;14.03;7.23;;;;;;;-145.18;100.00;46543.19;5074159;28;20468;-62
2023/06/28 09:54:45;;;;;;;13.00;7.37;;;;;;;-145.18;100.00;46545.16;5073054;28;20052;-62
2023/06/28 09:57:11;;;;;;;15.00;7.03;;;;;;;-145.18;100.00;46547.09;5074162;28;20044;-62
2023/06/28 09:59:37;;;;;;;13.03;6.70;;;;;;;-145.18;100.00;46547.09;5080637;28;20033;-62
2023/06/28 10:02:07;;;;;;;13.63;7.37;;;;;;;-145.18;100.00;46539.28;5076270;28;20024;-62
2023/06/28 10:04:39;;;;;;;14.17;7.60;;;;;;;-145.18;100.00;46537.34;5061760;28;20023;-61
2023/06/28 10:07:06;;;;;;;11.63;7.47;;;;;;;-145.18;100.00;46543.19;5073989;28;20488;-62
2023/06/28 10:09:40;;;;;;;15.00;8.13;;;;;;;-145.18;100.00;46537.34;5074135;28;20032;-61
2023/06/28 10:12:18;;;;;;;13.53;7.80;;;;;;;-145.18;100.00;46539.28;5074796;28;20031;-62
2023/06/28 10:14:56;;;;;;;11.70;7.17;;;;;;;-145.18;100.00;46537.34;5074076;28;20044;-62
2023/06/28 10:17:23;;;;;;;14.70;7.53;;;;;;;-145.18;100.00;46535.38;5074035;28;20066;-62
2023/06/28 10:19:50;;;;;;;13.63;7.53;;;;;;;-145.18;100.00;46533.44;5086138;28;20024;-62
2023/06/28 10:22:16;;;;;;;16.20;7.43;;;;;;;-145.18;100.00;46527.56;5088356;28;20028;-62
2023/06/28 10:24:42;;;;;;;13.13;7.17;;;;;;;-145.18;100.00;46537.34;5079735;28;20081;-62
2023/06/28 10:27:08;;;;;;;16.17;7.30;;;;;;;-145.18;100.00;46527.56;5074483;28;20381;-64
2023/06/28 10:29:35;;;;;;;17.00;8.27;;;;;;;-145.18;100.00;46543.19;5073648;28;20028;-64
2023/06/28 10:32:01;;;;;;;12.97;7.17;;;;;;;-145.18;100.00;46543.19;5075263;28;20026;-64
2023/06/28 10:34:28;;;;;;;19.30;8.07;;;;;;;-145.18;100.00;46537.34;5080928;28;20044;-60
2023/06/28 10:36:56;;;;;;;15.70;8.37;;;;;;;-145.18;100.00;46543.19;5073081;28;20492;-64
2023/06/28 10:39:21;;;;;;;15.53;7.77;;;;;;;-145.18;100.00;46527.56;5057525;28;20085;-64
2023/06/28 10:41:55;;;;;;;17.13;8.33;;;;;;;-145.18;100.00;46529.53;5072109;28;20025;-64
2023/06/28 10:44:20;;;;;;;15.97;8.87;;;;;;;-145.18;100.00;46529.53;5073926;28;20123;-64
2023/06/28 10:46:45;;;;;;;16.37;9.27;;;;;;;-145.18;100.00;46535.38;5085009;28;20123;-64
2023/06/28 10:49:11;;;;;;;15.63;9.27;;;;;;;-145.18;100.00;46521.72;5072742;28;20484;-63
2023/06/28 10:51:36;;;;;;;16.10;9.27;;;;;;;-145.18;100.00;46531.47;5098931;28;20036;-64
2023/06/28 10:54:13;;;;;;;16.33;9.10;;;;;;;-145.18;100.00;46523.66;5088927;28;20043;-64
2023/06/28 10:56:48;;;;;;;14.27;8.40;;;;;;;-145.18;100.00;46527.56;5085599;28;20024;-63
2023/06/28 10:59:14;;;;;;;;;;;;;;;-145.18;100.00;46515.84;5077408;28;20111;-63
2023/06/28 11:01:48;;;;;;;;;;;;;;;-145.18;100.00;46504.13;5085588;28;20020;-64